OLC Logo
SegelflugszeneGlidingParaHangGliding ModelGliding
FAI Affiliate Member
Servicede Deutsch MoreLanguages
  • Weltweit
  • -----------
  • Afrika
  • Asien
  • Australien / Ozeanien
  • Europa
  • Nordamerika
  • Südamerika
ALC Lesce/Bled (SI) 2017

Sportprofil

20 items found, displaying all items
space
Name U25 Starts Duration Gesamtpunkte OLC-Plus Speed-OLC Schnittgeschwindigkeit
Bostjan Pristavec smiley
25 193:19 22.626,63 134,64
Tone Cerin
23 137:46 10.002,57 74,29
Boris Zorz
11 74:24 6.476,11 84,87
Matjaz Zupan smiley
17 97:06 6.352,44 70,84
Karel Cec
8 50:06 4.240,72 107,77
Darko Jordanov
4 22:07 1.583,34 76,53
Andrej Kolar smiley
3 18:47 1.500,51 88,69
Rok Perko
5 24:30 1.496,60 64,32
Andrej Fijavz
5 24:30 1.418,80 73,22
Milan Korbar
7 23:09 1.412,45 49,62
Rok Einhauer
4 16:21 1.208,94 79,85
Erik Stritih
3 16:55 981,84 83,00
aleš janša
2 11:01 937,13 105,09
Mihael Garibaldi
7 24:26 910,05 30,41
Tanja Pristavec
2 9:25 896,85 121,59
Jure Nastran
2 9:03 623,28 86,16
Ben Podgorsek
1 7:08 513,39 85,68
Jernej Pristavec
2 14:47 337,25 26,15
Marjan Zvokelj
1 3:39 225,15 59,94
Vital Pretnar
1 3:48 0,00 0,00
20 items found, displaying all items
space
Alle gemeldeten Flüge

    OLC-Plus
    OLC-FAI
    Speed/League
    BHC

133 items found, displaying 1 - 50
Datum Punkte Name km km/h Startplatz Flugzeug Start Ende Info
2017-09-05 288,01 Boris Zorz (SI) 267,61 62,77 Lesce Bled (SI / ) Std. Cirrus 09:06 14:04 info
2017-09-05 168,89 Matjaz Zupan (SI) smiley 171,27 35,62 Lesce Bled (SI / ) DG 300 WL 08:54 14:00 info
2017-08-31 73,59 Milan Korbar (SI) 73,29 76,17 Lesce Bled (SI / ) DG 500 20m 14:25 15:29 info
2017-08-27 470,50 Matjaz Zupan (SI) smiley 427,71 72,82 Lesce Bled (SI / ) DG 100 10:13 16:16 info
2017-08-22 295,79 Darko Jordanov (SI) 299,82 56,83 Lesce Bled (SI / ) LS 8 10:53 16:17 info
2017-08-17 347,95 Tone Cerin (SI) 327,22 49,19 Lesce Bled (SI / ) DG 500 20m 08:46 16:35 info
2017-08-13 302,62 Matjaz Zupan (SI) smiley 259,05 55,30 Lesce Bled (SI / ) DG 300 11:16 16:15 info
2017-08-13 261,88 Darko Jordanov (SI) 241,64 56,20 Lesce Bled (SI / ) LS 8 10:58 15:38 info
2017-08-12 53,73 Milan Korbar (SI) 47,03 32,58 Lesce Bled (SI / ) DG 500 20m 14:25 15:59 info
2017-08-10 412,02 Mihael Garibaldi (SI) 327,20 73,58 Livno (BA / ) Std. Cirrus 12:22 16:58 info
2017-08-09 336,95 Mihael Garibaldi (SI) 266,10 76,46 Livno (BA / ) Std. Cirrus 11:31 16:13 info
2017-08-05 249,09 Matjaz Zupan (SI) smiley 232,00 55,31 Lesce Bled (SI / ) DG 100 11:00 15:27 info
2017-08-03 516,63 Bostjan Pristavec (SI) smiley 609,03 111,46 Livno (BA / ) EB 28 10:42 16:17 info
2017-08-03 474,49 Karel Cec (SI) 515,62 94,61 Livno (BA / ) ASH 25M 10:21 16:02 info
2017-08-01 715,34 Karel Cec (SI) 841,13 114,47 Livno (BA / ) ASH 25M 09:57 17:31 info
2017-08-01 456,03 Tanja Pristavec (SI) 535,15 125,49 Livno (BA / ) EB 28 11:26 15:57 info
2017-07-31 639,02 Karel Cec (SI) 737,89 106,32 Livno (BA / ) ASH 25M 09:20 16:42 info
2017-07-30 592,19 Bostjan Pristavec (SI) smiley 713,13 108,15 Livno (BA / ) EB 28 09:25 16:09 info
2017-07-30 486,07 Karel Cec (SI) 530,29 90,80 Livno (BA / ) ASH 25M 09:48 15:47 info
2017-07-29 480,90 Karel Cec (SI) 541,98 109,07 Livno (BA / ) ASH 25M 11:01 16:09 info
2017-07-29 440,82 Tanja Pristavec (SI) 514,60 107,44 Livno (BA / ) EB 28 10:46 15:41 info
2017-07-28 457,48 Bostjan Pristavec (SI) smiley 549,75 102,50 Livno (BA / ) EB 28 09:54 15:28 info
2017-07-28 448,55 Karel Cec (SI) 511,16 98,26 Livno (BA / ) ASH 25M 10:06 15:46 info
2017-07-28 71,71 Bostjan Pristavec (SI) smiley 87,25 114,80 Livno (BA / ) EB 28 15:40 16:32 info
2017-07-23 225,15 Marjan Zvokelj (SI) 208,24 60,66 Lesce Bled (SI / ) DG 300 11:10 14:49 info
2017-07-22 558,25 Matjaz Zupan (SI) smiley 558,49 78,31 Lesce Bled (SI / ) DG 300 09:46 17:02 info
2017-07-22 504,59 aleš janša (SI) 506,06 84,97 Lesce Bled (SI / ) DG 500 20m 10:38 17:06 info
2017-07-22 501,67 Andrej Fijavz (SI) 540,62 102,76 Lesce Bled (SI / ) LS 8/18m 09:36 17:14 info
2017-07-22 410,34 Rok Perko (SI) 403,25 75,93 Lesce Bled (SI / ) DG 303 09:54 16:06 info
2017-07-22 408,11 Milan Korbar (SI) 370,25 58,71 Lesce Bled (SI / ) DG 100 10:03 16:28 info
2017-07-16 507,73 Darko Jordanov (SI) 473,85 78,58 Lesce Bled (SI / ) LS 8/18m 09:23 15:28 info
2017-07-16 436,64 Matjaz Zupan (SI) smiley 417,49 63,67 Lesce Bled (SI / ) DG 300 09:12 16:06 info
2017-07-16 337,18 Andrej Kolar (SI) smiley 326,39 72,27 Lesce Bled (SI / ) DG 500M 20m 10:09 15:00 info
2017-07-16 293,48 Rok Perko (SI) 262,40 57,27 Lesce Bled (SI / ) DG 300 09:29 14:18 info
2017-07-10 284,90 Bostjan Pristavec (SI) smiley 343,17 149,62 Lesce Bled (SI / ) EB 28 13:50 16:14 info
2017-07-09 178,61 Andrej Fijavz (SI) 184,27 45,07 Koprivnica Danic (HR / ) LS 8/18m 10:03 15:24 info
2017-07-08 269,52 Tone Cerin (SI) 279,36 61,53 Koprivnica Danic (HR / ) LS 8 11:02 15:57 info
2017-07-08 74,56 Andrej Fijavz (SI) 48,87 21,02 Koprivnica Danic (HR / ) Ka 8 11:44 14:20 info
2017-07-06 824,66 Boris Zorz (SI) 659,96 86,79 Lesce Bled (SI / ) Std. Cirrus 09:20 17:21 info
2017-07-06 808,88 Bostjan Pristavec (SI) smiley 898,99 109,89 Lesce Bled (SI / ) EB 28 09:03 17:33 info
2017-07-06 734,54 Tone Cerin (SI) 619,82 80,22 Lesce Bled (SI / ) DG 303 09:45 17:44 info
2017-07-06 658,70 Andrej Kolar (SI) smiley 656,99 104,22 Lesce Bled (SI / ) LS 8 09:51 16:20 info
2017-07-06 644,05 Matjaz Zupan (SI) smiley 550,44 72,99 Lesce Bled (SI / ) DG 300 09:32 17:23 info
2017-07-03 367,48 Boris Zorz (SI) 348,48 44,54 Lesce Bled (SI / ) Std. Cirrus 08:56 17:03 info
2017-07-03 300,64 Tone Cerin (SI) 301,89 50,18 Lesce Bled (SI / ) DG 300 09:08 15:34 info
2017-06-26 437,24 Tone Cerin (SI) 394,49 66,48 Lesce Bled (SI / ) DG 500 20m 09:59 16:14 info
2017-06-26 0,00 Mihael Garibaldi (SI) 142,10 58,07 Lesce Bled (SI / ) DG 300 14:03 16:40 info
2017-06-20 0,00 Mihael Garibaldi (SI) 218,87 66,22 Lesce Bled (SI / ) DG 500M 22m 10:46 14:15 info
2017-06-19 572,93 Bostjan Pristavec (SI) smiley 553,65 93,93 Lesce Bled (SI / ) EB 28 09:45 16:05 info
2017-06-19 224,23 Milan Korbar (SI) 216,28 52,29 Lesce Bled (SI / ) DG 500M 20m 11:54 16:31 info
133 items found, displaying 1 - 50
126 items found, displaying 1 - 50
Datum Punkte Name km km/h Startplatz Flugzeug Start Ende Info
2017-09-05 59,03 Boris Zorz (SI) 58,44 15,41 Lesce Bled (SI / ) Std. Cirrus 09:06 14:04 info
2017-09-05 19,28 Matjaz Zupan (SI) smiley 20,25 5,20 Lesce Bled (SI / ) DG 300 WL 08:54 14:00 info
2017-08-31 10,40 Milan Korbar (SI) 10,81 20,97 Lesce Bled (SI / ) DG 500 20m 14:25 15:29 info
2017-08-27 142,62 Matjaz Zupan (SI) smiley 142,62 26,62 Lesce Bled (SI / ) DG 100 10:13 16:16 info
2017-08-22 60,59 Darko Jordanov (SI) 65,43 12,96 Lesce Bled (SI / ) LS 8 10:53 16:17 info
2017-08-17 110,99 Tone Cerin (SI) 115,43 17,77 Lesce Bled (SI / ) DG 500 20m 08:46 16:35 info
2017-08-13 178,47 Matjaz Zupan (SI) smiley 185,61 48,33 Lesce Bled (SI / ) DG 300 11:16 16:15 info
2017-08-13 127,12 Darko Jordanov (SI) 137,29 38,69 Lesce Bled (SI / ) LS 8 10:58 15:38 info
2017-08-12 28,31 Milan Korbar (SI) 29,44 21,58 Lesce Bled (SI / ) DG 500 20m 14:25 15:59 info
2017-08-10 271,74 Mihael Garibaldi (SI) 269,02 59,25 Livno (BA / ) Std. Cirrus 12:22 16:58 info
2017-08-09 227,21 Mihael Garibaldi (SI) 224,94 63,98 Livno (BA / ) Std. Cirrus 11:31 16:13 info
2017-08-05 56,98 Matjaz Zupan (SI) smiley 56,98 15,95 Lesce Bled (SI / ) DG 100 11:00 15:27 info
2017-08-03 172,83 Karel Cec (SI) 210,86 74,98 Livno (BA / ) ASH 25M 10:21 16:02 info
2017-08-03 84,91 Bostjan Pristavec (SI) smiley 105,29 19,15 Livno (BA / ) EB 28 10:42 16:17 info
2017-08-01 86,32 Karel Cec (SI) 105,31 19,10 Livno (BA / ) ASH 25M 09:57 17:31 info
2017-08-01 81,48 Tanja Pristavec (SI) 101,04 23,87 Livno (BA / ) EB 28 11:26 15:57 info
2017-07-31 113,98 Karel Cec (SI) 139,05 21,51 Livno (BA / ) ASH 25M 09:20 16:42 info
2017-07-30 171,33 Karel Cec (SI) 209,02 57,09 Livno (BA / ) ASH 25M 09:48 15:47 info
2017-07-30 56,98 Bostjan Pristavec (SI) smiley 70,66 10,72 Livno (BA / ) EB 28 09:25 16:09 info
2017-07-29 122,18 Karel Cec (SI) 149,06 29,85 Livno (BA / ) ASH 25M 11:01 16:09 info
2017-07-29 86,08 Tanja Pristavec (SI) 106,74 22,95 Livno (BA / ) EB 28 10:46 15:41 info
2017-07-28 98,55 Karel Cec (SI) 120,23 33,73 Livno (BA / ) ASH 25M 10:06 15:46 info
2017-07-28 47,11 Bostjan Pristavec (SI) smiley 58,42 11,51 Livno (BA / ) EB 28 09:54 15:28 info
2017-07-28 4,48 Bostjan Pristavec (SI) smiley 5,56 11,02 Livno (BA / ) EB 28 15:40 16:32 info
2017-07-23 83,02 Marjan Zvokelj (SI) 86,34 55,24 Lesce Bled (SI / ) DG 300 11:10 14:49 info
2017-07-22 126,20 Milan Korbar (SI) 126,20 39,31 Lesce Bled (SI / ) DG 100 10:03 16:28 info
2017-07-22 91,49 Andrej Fijavz (SI) 104,30 14,87 Lesce Bled (SI / ) LS 8/18m 09:36 17:14 info
2017-07-22 87,62 Rok Perko (SI) 92,00 15,64 Lesce Bled (SI / ) DG 303 09:54 16:06 info
2017-07-22 70,80 Matjaz Zupan (SI) smiley 73,63 10,19 Lesce Bled (SI / ) DG 300 09:46 17:02 info
2017-07-22 59,93 aleš janša (SI) 62,32 23,86 Lesce Bled (SI / ) DG 500 20m 10:38 17:06 info
2017-07-16 306,80 Darko Jordanov (SI) 349,75 61,35 Lesce Bled (SI / ) LS 8/18m 09:23 15:28 info
2017-07-16 137,25 Rok Perko (SI) 142,74 30,88 Lesce Bled (SI / ) DG 300 09:29 14:18 info
2017-07-16 117,41 Matjaz Zupan (SI) smiley 122,10 18,13 Lesce Bled (SI / ) DG 300 09:12 16:06 info
2017-07-16 77,81 Andrej Kolar (SI) smiley 80,93 16,84 Lesce Bled (SI / ) DG 500M 20m 10:09 15:00 info
2017-07-10 27,16 Bostjan Pristavec (SI) smiley 33,67 15,48 Lesce Bled (SI / ) EB 28 13:50 16:14 info
2017-07-09 56,60 Andrej Fijavz (SI) 64,52 12,32 Koprivnica Danic (HR / ) LS 8/18m 10:03 15:24 info
2017-07-08 36,19 Tone Cerin (SI) 39,09 9,02 Koprivnica Danic (HR / ) LS 8 11:02 15:57 info
2017-07-08 34,13 Andrej Fijavz (SI) 25,94 10,57 Koprivnica Danic (HR / ) Ka 8 11:44 14:20 info
2017-07-06 526,83 Boris Zorz (SI) 521,56 71,36 Lesce Bled (SI / ) Std. Cirrus 09:20 17:21 info
2017-07-06 480,73 Tone Cerin (SI) 504,76 69,22 Lesce Bled (SI / ) DG 303 09:45 17:44 info
2017-07-06 382,65 Matjaz Zupan (SI) smiley 397,95 56,70 Lesce Bled (SI / ) DG 300 09:32 17:23 info
2017-07-06 279,65 Bostjan Pristavec (SI) smiley 346,77 42,41 Lesce Bled (SI / ) EB 28 09:03 17:33 info
2017-07-06 167,94 Andrej Kolar (SI) smiley 181,37 32,09 Lesce Bled (SI / ) LS 8 09:51 16:20 info
2017-07-03 51,57 Boris Zorz (SI) 51,05 6,87 Lesce Bled (SI / ) Std. Cirrus 08:56 17:03 info
2017-07-03 34,55 Tone Cerin (SI) 35,93 7,92 Lesce Bled (SI / ) DG 300 09:08 15:34 info
2017-06-26 193,03 Tone Cerin (SI) 200,75 38,49 Lesce Bled (SI / ) DG 500 20m 09:59 16:14 info
2017-06-19 421,46 Bostjan Pristavec (SI) smiley 522,61 88,30 Lesce Bled (SI / ) EB 28 09:45 16:05 info
2017-06-19 54,19 Milan Korbar (SI) 56,36 15,57 Lesce Bled (SI / ) DG 500M 20m 11:54 16:31 info
2017-06-18 52,37 Jernej Pristavec (SI) 54,47 8,12 Lesce Bled (SI / ) DG 300 09:38 17:35 info
2017-06-18 48,63 Tone Cerin (SI) 52,52 6,96 Lesce Bled (SI / ) LS 8 09:33 17:24 info
126 items found, displaying 1 - 50
125 items found, displaying 1 - 50
Datum Punkte Name km km/h Startplatz Flugzeug Start Ende Info
2017-09-05 66,59 Boris Zorz (SI) 165,22 66,09 Lesce Bled (SI / ) Std. Cirrus 09:06 14:04 info
2017-09-05 60,72 Matjaz Zupan (SI) smiley 157,50 63,00 Lesce Bled (SI / ) DG 300 WL 08:54 14:00 info
2017-08-31 24,49 Milan Korbar (SI) 63,07 25,23 Lesce Bled (SI / ) DG 500 20m 14:25 15:29 info
2017-08-27 72,67 Matjaz Zupan (SI) smiley 181,67 72,67 Lesce Bled (SI / ) DG 100 10:13 16:16 info
2017-08-22 60,85 Darko Jordanov (SI) 161,25 64,50 Lesce Bled (SI / ) LS 8 10:53 16:17 info
2017-08-17 64,94 Tone Cerin (SI) 167,23 66,89 Lesce Bled (SI / ) DG 500 20m 08:46 16:35 info
2017-08-13 57,14 Matjaz Zupan (SI) smiley 147,13 58,85 Lesce Bled (SI / ) DG 300 11:16 16:15 info
2017-08-13 53,04 Darko Jordanov (SI) 140,54 56,22 Lesce Bled (SI / ) LS 8 10:58 15:38 info
2017-08-12 15,06 Milan Korbar (SI) 38,79 15,52 Lesce Bled (SI / ) DG 500 20m 14:25 15:59 info
2017-08-10 79,85 Mihael Garibaldi (SI) 198,14 79,25 Livno (BA / ) Std. Cirrus 12:22 16:58 info
2017-08-09 81,35 Mihael Garibaldi (SI) 201,85 80,74 Livno (BA / ) Std. Cirrus 11:31 16:13 info
2017-08-05 58,71 Matjaz Zupan (SI) smiley 146,77 58,71 Lesce Bled (SI / ) DG 100 11:00 15:27 info
2017-08-03 107,35 Bostjan Pristavec (SI) smiley 316,68 126,67 Livno (BA / ) EB 28 10:42 16:17 info
2017-08-03 94,95 Karel Cec (SI) 276,53 110,61 Livno (BA / ) ASH 25M 10:21 16:02 info
2017-08-01 109,32 Tanja Pristavec (SI) 322,48 128,99 Livno (BA / ) EB 28 11:26 15:57 info
2017-08-01 107,49 Karel Cec (SI) 313,05 125,22 Livno (BA / ) ASH 25M 09:57 17:31 info
2017-07-31 103,18 Karel Cec (SI) 300,51 120,20 Livno (BA / ) ASH 25M 09:20 16:42 info
2017-07-30 89,86 Bostjan Pristavec (SI) smiley 265,10 106,04 Livno (BA / ) EB 28 09:25 16:09 info
2017-07-30 81,83 Karel Cec (SI) 238,32 95,33 Livno (BA / ) ASH 25M 09:48 15:47 info
2017-07-29 96,77 Tanja Pristavec (SI) 285,46 114,18 Livno (BA / ) EB 28 10:46 15:41 info
2017-07-29 96,12 Karel Cec (SI) 279,96 111,98 Livno (BA / ) ASH 25M 11:01 16:09 info
2017-07-28 93,06 Bostjan Pristavec (SI) smiley 274,52 109,81 Livno (BA / ) EB 28 09:54 15:28 info
2017-07-28 86,46 Karel Cec (SI) 251,81 100,72 Livno (BA / ) ASH 25M 10:06 15:46 info
2017-07-28 25,56 Bostjan Pristavec (SI) smiley 75,41 30,16 Livno (BA / ) EB 28 15:40 16:32 info
2017-07-23 58,20 Marjan Zvokelj (SI) 149,86 59,94 Lesce Bled (SI / ) DG 300 11:10 14:49 info
2017-07-22 99,05 Andrej Fijavz (SI) 273,63 109,45 Lesce Bled (SI / ) LS 8/18m 09:36 17:14 info
2017-07-22 96,63 aleš janša (SI) 248,83 99,53 Lesce Bled (SI / ) DG 500 20m 10:38 17:06 info
2017-07-22 88,10 Matjaz Zupan (SI) smiley 226,87 90,75 Lesce Bled (SI / ) DG 300 09:46 17:02 info
2017-07-22 78,21 Rok Perko (SI) 202,86 81,14 Lesce Bled (SI / ) DG 303 09:54 16:06 info
2017-07-22 76,46 Milan Korbar (SI) 191,16 76,46 Lesce Bled (SI / ) DG 100 10:03 16:28 info
2017-07-16 75,15 Darko Jordanov (SI) 207,61 83,05 Lesce Bled (SI / ) LS 8/18m 09:23 15:28 info
2017-07-16 66,68 Andrej Kolar (SI) smiley 171,70 68,68 Lesce Bled (SI / ) DG 500M 20m 10:09 15:00 info
2017-07-16 65,45 Matjaz Zupan (SI) smiley 168,53 67,41 Lesce Bled (SI / ) DG 300 09:12 16:06 info
2017-07-16 58,79 Rok Perko (SI) 151,38 60,55 Lesce Bled (SI / ) DG 300 09:29 14:18 info
2017-07-10 112,74 Bostjan Pristavec (SI) smiley 332,57 133,03 Lesce Bled (SI / ) EB 28 13:50 16:14 info
2017-07-09 48,78 Andrej Fijavz (SI) 134,74 53,90 Koprivnica Danic (HR / ) LS 8/18m 10:03 15:24 info
2017-07-08 65,41 Tone Cerin (SI) 173,34 69,34 Koprivnica Danic (HR / ) LS 8 11:02 15:57 info
2017-07-08 18,42 Andrej Fijavz (SI) 37,76 15,10 Koprivnica Danic (HR / ) Ka 8 11:44 14:20 info
2017-07-06 114,28 Andrej Kolar (SI) smiley 302,85 121,14 Lesce Bled (SI / ) LS 8 09:51 16:20 info
2017-07-06 108,01 Boris Zorz (SI) 267,99 107,20 Lesce Bled (SI / ) Std. Cirrus 09:20 17:21 info
2017-07-06 105,05 Bostjan Pristavec (SI) smiley 309,91 123,96 Lesce Bled (SI / ) EB 28 09:03 17:33 info
2017-07-06 87,43 Tone Cerin (SI) 226,78 90,71 Lesce Bled (SI / ) DG 303 09:45 17:44 info
2017-07-06 80,29 Matjaz Zupan (SI) smiley 206,76 82,70 Lesce Bled (SI / ) DG 300 09:32 17:23 info
2017-07-03 55,60 Tone Cerin (SI) 143,17 57,27 Lesce Bled (SI / ) DG 300 09:08 15:34 info
2017-07-03 55,54 Boris Zorz (SI) 137,81 55,12 Lesce Bled (SI / ) Std. Cirrus 08:56 17:03 info
2017-06-26 70,43 Tone Cerin (SI) 181,36 72,54 Lesce Bled (SI / ) DG 500 20m 09:59 16:14 info
2017-06-19 83,97 Bostjan Pristavec (SI) smiley 247,72 99,09 Lesce Bled (SI / ) EB 28 09:45 16:05 info
2017-06-19 53,58 Milan Korbar (SI) 137,96 55,18 Lesce Bled (SI / ) DG 500M 20m 11:54 16:31 info
2017-06-18 75,01 Tone Cerin (SI) 198,78 79,51 Lesce Bled (SI / ) LS 8 09:33 17:24 info
2017-06-18 50,78 Jernej Pristavec (SI) 130,76 52,30 Lesce Bled (SI / ) DG 300 09:38 17:35 info
125 items found, displaying 1 - 50
4 items found, displaying all items
space
Datum Punkte Name km km/h Startplatz Flugzeug Start Ende Info
2017-07-06 512,37 Boris Zorz (SI) 507,25 84,47 Lesce Bled (SI / ) Std. Cirrus 09:20 17:21 info
2017-05-27 820,36 Bostjan Pristavec (SI) smiley 782,49 85,84 Lesce Bled (SI / ) EB 28 08:21 17:52 info
2017-05-16 671,56 Boris Zorz (SI) 511,42 65,02 Lesce Bled (SI / ) Std. Cirrus 08:34 16:57 info
2016-12-17 1.185,03 Bostjan Pristavec (SI) smiley 1.130,34 129,96 Bitterwasser (NA / ) EB 28 08:22 17:44 info
4 items found, displaying all items
space
Quick-Links
directclaim Service
Letzte News
19. November

Wave Soaring Marathon

OLC Liga-Finale 2017
7. Oktober um 13.00 Uhr
Poppenhausen
Jubel-Event für die Sieger
Platin Sponsoren
Platin SponsorenaerokurierPeter H. BraaschBürklin
Gold Sponsoren
Gold SponsorennavITerTopMeteoLXNAVbinderHPHLANGE Aviation GmbHJonker SailplanesAir AvionicsBitterwasserM+D FlugzeugbauFliegerstromDeutscher WetterdienstILECDG FlugzeugbauAlexander SchleicherSCHEMPP-HIRTH Flugzeugbau GmbHFLARMTQ AvionicsCobra TrailerOLC Sponsor werden?
Silber Sponsoren
Silber SponsorenSegelflugschule WasserkuppeRent a GliderIMI GlidingMilvusTostSiebertWINTER InstrumentsClouddancers
Bronze Sponsoren
Bronze SponsorenFLIGHT TEAMOLC Sponsor werden?
OLC Partner
OLC PartnerSoaring Society of AmericaGliding Federation of AustraliaKoninklijke Nederlandse Vereniging voor Luchtvaartconono GmbHFAIBarronHiltonCupDEUTSCHER AERO-CLUB E.V.Segelflugverband der SchweizSoaring Association of CanadaOLC Sponsor werden?